sensor_id;sensor_type;location;lat;lon;timestamp;temperature;humidity
4201;DHT22;2114;50.398;8.814;2023-04-24T00:03:08;12.80;99.90
4201;DHT22;2114;50.398;8.814;2023-04-24T00:08:08;12.70;99.90
4201;DHT22;2114;50.398;8.814;2023-04-24T00:13:09;12.60;99.90
4201;DHT22;2114;50.398;8.814;2023-04-24T00:18:10;12.40;99.90
4201;DHT22;2114;50.398;8.814;2023-04-24T00:23:10;12.30;99.90
4201;DHT22;2114;50.398;8.814;2023-04-24T00:28:11;12.30;99.90
4201;DHT22;2114;50.398;8.814;2023-04-24T00:33:11;12.20;99.90
4201;DHT22;2114;50.398;8.814;2023-04-24T00:38:12;12.20;99.90
4201;DHT22;2114;50.398;8.814;2023-04-24T00:43:13;12.10;99.90
4201;DHT22;2114;50.398;8.814;2023-04-24T00:48:14;12.20;99.90
4201;DHT22;2114;50.398;8.814;2023-04-24T00:53:15;12.10;99.90
4201;DHT22;2114;50.398;8.814;2023-04-24T00:58:15;12.20;99.90
4201;DHT22;2114;50.398;8.814;2023-04-24T01:03:17;12.20;99.90
4201;DHT22;2114;50.398;8.814;2023-04-24T01:08:18;12.20;99.90
4201;DHT22;2114;50.398;8.814;2023-04-24T01:13:20;12.30;99.90
4201;DHT22;2114;50.398;8.814;2023-04-24T01:18:21;12.30;99.90
4201;DHT22;2114;50.398;8.814;2023-04-24T01:23:22;12.30;99.90
4201;DHT22;2114;50.398;8.814;2023-04-24T01:28:22;12.40;99.90
4201;DHT22;2114;50.398;8.814;2023-04-24T01:33:23;12.30;99.90
4201;DHT22;2114;50.398;8.814;2023-04-24T01:38:24;12.30;99.90
4201;DHT22;2114;50.398;8.814;2023-04-24T01:43:25;12.30;99.90
4201;DHT22;2114;50.398;8.814;2023-04-24T01:48:26;12.30;99.90
4201;DHT22;2114;50.398;8.814;2023-04-24T01:53:27;12.30;99.90
4201;DHT22;2114;50.398;8.814;2023-04-24T01:58:27;12.30;99.90
4201;DHT22;2114;50.398;8.814;2023-04-24T02:03:28;12.30;99.90
4201;DHT22;2114;50.398;8.814;2023-04-24T02:08:29;12.20;99.90
4201;DHT22;2114;50.398;8.814;2023-04-24T02:13:30;12.20;99.90
4201;DHT22;2114;50.398;8.814;2023-04-24T02:18:30;12.20;99.90
4201;DHT22;2114;50.398;8.814;2023-04-24T02:23:31;12.20;99.90
4201;DHT22;2114;50.398;8.814;2023-04-24T02:28:32;12.30;99.90
4201;DHT22;2114;50.398;8.814;2023-04-24T02:33:32;12.30;99.90
4201;DHT22;2114;50.398;8.814;2023-04-24T02:38:33;12.20;99.90
4201;DHT22;2114;50.398;8.814;2023-04-24T02:43:34;12.20;99.90
4201;DHT22;2114;50.398;8.814;2023-04-24T02:48:34;12.10;99.90
4201;DHT22;2114;50.398;8.814;2023-04-24T02:53:35;12.10;99.90
4201;DHT22;2114;50.398;8.814;2023-04-24T02:58:35;12.10;99.90
4201;DHT22;2114;50.398;8.814;2023-04-24T03:03:37;12.00;99.90
4201;DHT22;2114;50.398;8.814;2023-04-24T03:08:38;11.90;99.90
4201;DHT22;2114;50.398;8.814;2023-04-24T03:13:38;11.90;99.90
4201;DHT22;2114;50.398;8.814;2023-04-24T03:18:39;11.90;99.90
4201;DHT22;2114;50.398;8.814;2023-04-24T03:23:39;11.90;99.90
4201;DHT22;2114;50.398;8.814;2023-04-24T03:28:40;11.80;99.90
4201;DHT22;2114;50.398;8.814;2023-04-24T03:33:41;11.60;99.90
4201;DHT22;2114;50.398;8.814;2023-04-24T03:38:41;11.60;99.90
4201;DHT22;2114;50.398;8.814;2023-04-24T03:43:42;11.50;99.90
4201;DHT22;2114;50.398;8.814;2023-04-24T03:48:43;11.40;99.90
4201;DHT22;2114;50.398;8.814;2023-04-24T03:53:43;11.40;99.90
4201;DHT22;2114;50.398;8.814;2023-04-24T03:58:44;11.40;99.90
4201;DHT22;2114;50.398;8.814;2023-04-24T04:03:44;11.40;99.90
4201;DHT22;2114;50.398;8.814;2023-04-24T04:08:45;11.40;99.90
4201;DHT22;2114;50.398;8.814;2023-04-24T04:13:46;11.40;99.90
4201;DHT22;2114;50.398;8.814;2023-04-24T04:18:48;11.30;99.90
4201;DHT22;2114;50.398;8.814;2023-04-24T04:23:49;11.30;99.90
4201;DHT22;2114;50.398;8.814;2023-04-24T04:28:49;11.20;99.90
4201;DHT22;2114;50.398;8.814;2023-04-24T04:33:50;11.10;99.90
4201;DHT22;2114;50.398;8.814;2023-04-24T04:38:51;11.00;99.90
4201;DHT22;2114;50.398;8.814;2023-04-24T04:43:51;10.80;99.90
4201;DHT22;2114;50.398;8.814;2023-04-24T04:48:53;10.70;99.90
4201;DHT22;2114;50.398;8.814;2023-04-24T04:53:54;10.50;99.90
4201;DHT22;2114;50.398;8.814;2023-04-24T04:58:55;10.30;99.90
4201;DHT22;2114;50.398;8.814;2023-04-24T05:03:55;10.10;99.90
4201;DHT22;2114;50.398;8.814;2023-04-24T05:08:56;10.10;99.90
4201;DHT22;2114;50.398;8.814;2023-04-24T05:13:57;10.00;99.90
4201;DHT22;2114;50.398;8.814;2023-04-24T05:18:58;10.00;99.90
4201;DHT22;2114;50.398;8.814;2023-04-24T05:23:58;10.00;99.90
4201;DHT22;2114;50.398;8.814;2023-04-24T05:28:59;9.90;99.90
4201;DHT22;2114;50.398;8.814;2023-04-24T05:34:00;9.90;99.90
4201;DHT22;2114;50.398;8.814;2023-04-24T05:39:01;10.00;99.90
4201;DHT22;2114;50.398;8.814;2023-04-24T05:44:01;10.10;99.90
4201;DHT22;2114;50.398;8.814;2023-04-24T05:49:02;10.50;99.90
4201;DHT22;2114;50.398;8.814;2023-04-24T05:54:03;11.00;99.90
4201;DHT22;2114;50.398;8.814;2023-04-24T05:59:04;11.40;99.90
4201;DHT22;2114;50.398;8.814;2023-04-24T06:04:04;11.70;99.90
4201;DHT22;2114;50.398;8.814;2023-04-24T06:09:05;11.80;99.90
4201;DHT22;2114;50.398;8.814;2023-04-24T06:14:07;11.90;99.90
4201;DHT22;2114;50.398;8.814;2023-04-24T06:19:07;12.00;99.90
4201;DHT22;2114;50.398;8.814;2023-04-24T06:24:08;12.10;99.90
4201;DHT22;2114;50.398;8.814;2023-04-24T06:29:09;11.90;99.90
4201;DHT22;2114;50.398;8.814;2023-04-24T06:34:09;11.70;99.90
4201;DHT22;2114;50.398;8.814;2023-04-24T06:39:10;11.40;99.90
4201;DHT22;2114;50.398;8.814;2023-04-24T06:44:11;11.40;99.90
4201;DHT22;2114;50.398;8.814;2023-04-24T06:49:11;11.40;99.90
4201;DHT22;2114;50.398;8.814;2023-04-24T06:54:12;11.50;99.90
4201;DHT22;2114;50.398;8.814;2023-04-24T06:59:13;11.60;99.90
4201;DHT22;2114;50.398;8.814;2023-04-24T07:04:13;11.70;99.90
4201;DHT22;2114;50.398;8.814;2023-04-24T07:09:14;11.80;99.90
4201;DHT22;2114;50.398;8.814;2023-04-24T07:14:16;11.90;99.90
4201;DHT22;2114;50.398;8.814;2023-04-24T07:19:17;12.00;99.90
4201;DHT22;2114;50.398;8.814;2023-04-24T07:24:18;12.10;99.90
4201;DHT22;2114;50.398;8.814;2023-04-24T07:29:18;12.20;99.90
4201;DHT22;2114;50.398;8.814;2023-04-24T07:34:20;12.30;99.90
4201;DHT22;2114;50.398;8.814;2023-04-24T07:39:20;12.40;99.90
4201;DHT22;2114;50.398;8.814;2023-04-24T07:44:21;12.70;99.90
4201;DHT22;2114;50.398;8.814;2023-04-24T07:49:22;12.90;99.90
4201;DHT22;2114;50.398;8.814;2023-04-24T07:54:22;13.30;99.90
4201;DHT22;2114;50.398;8.814;2023-04-24T07:59:23;13.90;99.90
4201;DHT22;2114;50.398;8.814;2023-04-24T08:04:24;14.40;99.90
4201;DHT22;2114;50.398;8.814;2023-04-24T08:09:25;15.00;99.90
4201;DHT22;2114;50.398;8.814;2023-04-24T08:14:25;15.50;99.90
4201;DHT22;2114;50.398;8.814;2023-04-24T08:19:26;15.80;99.90
4201;DHT22;2114;50.398;8.814;2023-04-24T08:24:27;16.10;99.90
4201;DHT22;2114;50.398;8.814;2023-04-24T08:29:27;16.50;99.90
4201;DHT22;2114;50.398;8.814;2023-04-24T08:34:28;17.10;99.90
4201;DHT22;2114;50.398;8.814;2023-04-24T08:39:28;17.80;99.90
4201;DHT22;2114;50.398;8.814;2023-04-24T08:44:29;18.30;99.90
4201;DHT22;2114;50.398;8.814;2023-04-24T08:49:31;18.30;99.90
4201;DHT22;2114;50.398;8.814;2023-04-24T08:54:34;17.90;99.90
4201;DHT22;2114;50.398;8.814;2023-04-24T09:04:36;16.60;99.90
4201;DHT22;2114;50.398;8.814;2023-04-24T09:09:38;16.50;99.90
4201;DHT22;2114;50.398;8.814;2023-04-24T09:14:39;16.00;99.90
4201;DHT22;2114;50.398;8.814;2023-04-24T09:19:43;15.50;99.90
4201;DHT22;2114;50.398;8.814;2023-04-24T09:24:45;15.30;99.90
4201;DHT22;2114;50.398;8.814;2023-04-24T09:29:56;15.20;99.90
4201;DHT22;2114;50.398;8.814;2023-04-24T09:35:17;15.20;99.90
4201;DHT22;2114;50.398;8.814;2023-04-24T09:40:19;15.40;99.90
4201;DHT22;2114;50.398;8.814;2023-04-24T09:45:20;15.50;99.90
4201;DHT22;2114;50.398;8.814;2023-04-24T09:50:21;15.60;99.90
4201;DHT22;2114;50.398;8.814;2023-04-24T09:55:22;15.70;99.90
4201;DHT22;2114;50.398;8.814;2023-04-24T10:00:28;15.60;99.90
4201;DHT22;2114;50.398;8.814;2023-04-24T10:05:37;15.50;99.90
4201;DHT22;2114;50.398;8.814;2023-04-24T10:10:44;15.40;99.90
4201;DHT22;2114;50.398;8.814;2023-04-24T10:15:45;15.30;99.90
4201;DHT22;2114;50.398;8.814;2023-04-24T10:20:48;15.60;99.90
4201;DHT22;2114;50.398;8.814;2023-04-24T10:25:49;16.10;99.90
4201;DHT22;2114;50.398;8.814;2023-04-24T10:30:52;16.70;99.90
4201;DHT22;2114;50.398;8.814;2023-04-24T10:35:55;17.00;99.90
4201;DHT22;2114;50.398;8.814;2023-04-24T10:41:13;17.00;99.90
4201;DHT22;2114;50.398;8.814;2023-04-24T10:46:20;16.80;99.90
4201;DHT22;2114;50.398;8.814;2023-04-24T10:51:22;16.80;99.90
4201;DHT22;2114;50.398;8.814;2023-04-24T10:56:23;16.60;99.90
4201;DHT22;2114;50.398;8.814;2023-04-24T11:01:30;16.40;99.90
4201;DHT22;2114;50.398;8.814;2023-04-24T11:06:34;15.90;99.90
4201;DHT22;2114;50.398;8.814;2023-04-24T11:11:36;15.30;99.90
4201;DHT22;2114;50.398;8.814;2023-04-24T11:16:44;14.70;99.90
4201;DHT22;2114;50.398;8.814;2023-04-24T11:21:56;14.30;99.90
4201;DHT22;2114;50.398;8.814;2023-04-24T11:32:24;13.80;99.90
4201;DHT22;2114;50.398;8.814;2023-04-24T11:37:33;13.90;99.90
4201;DHT22;2114;50.398;8.814;2023-04-24T11:42:39;14.30;99.90
4201;DHT22;2114;50.398;8.814;2023-04-24T11:47:41;14.90;99.90
4201;DHT22;2114;50.398;8.814;2023-04-24T11:52:44;15.70;99.90
4201;DHT22;2114;50.398;8.814;2023-04-24T11:57:46;16.30;99.90
4201;DHT22;2114;50.398;8.814;2023-04-24T12:02:47;17.10;99.90
4201;DHT22;2114;50.398;8.814;2023-04-24T12:07:49;17.60;99.90
4201;DHT22;2114;50.398;8.814;2023-04-24T12:12:50;18.00;99.90
4201;DHT22;2114;50.398;8.814;2023-04-24T12:17:53;18.10;99.90
4201;DHT22;2114;50.398;8.814;2023-04-24T12:22:56;18.00;99.90
4201;DHT22;2114;50.398;8.814;2023-04-24T12:32:59;17.90;99.90
4201;DHT22;2114;50.398;8.814;2023-04-24T12:38:10;18.00;99.90
4201;DHT22;2114;50.398;8.814;2023-04-24T12:43:18;17.90;99.90
4201;DHT22;2114;50.398;8.814;2023-04-24T12:48:19;16.40;99.90
4201;DHT22;2114;50.398;8.814;2023-04-24T12:53:20;16.30;99.90
4201;DHT22;2114;50.398;8.814;2023-04-24T12:58:21;15.70;99.90
4201;DHT22;2114;50.398;8.814;2023-04-24T13:03:22;15.30;99.90
4201;DHT22;2114;50.398;8.814;2023-04-24T13:08:22;15.30;99.90
4201;DHT22;2114;50.398;8.814;2023-04-24T13:13:23;15.50;99.90
4201;DHT22;2114;50.398;8.814;2023-04-24T13:18:24;15.90;99.90
4201;DHT22;2114;50.398;8.814;2023-04-24T13:23:24;16.50;99.90
4201;DHT22;2114;50.398;8.814;2023-04-24T13:28:25;17.40;99.90
4201;DHT22;2114;50.398;8.814;2023-04-24T13:33:25;18.00;99.90
4201;DHT22;2114;50.398;8.814;2023-04-24T13:38:26;18.50;99.90
4201;DHT22;2114;50.398;8.814;2023-04-24T13:43:27;18.90;99.90
4201;DHT22;2114;50.398;8.814;2023-04-24T13:48:27;19.20;99.90
4201;DHT22;2114;50.398;8.814;2023-04-24T13:53:28;19.10;99.90
4201;DHT22;2114;50.398;8.814;2023-04-24T13:58:28;19.10;99.90
4201;DHT22;2114;50.398;8.814;2023-04-24T14:03:29;19.30;99.90
4201;DHT22;2114;50.398;8.814;2023-04-24T14:08:30;19.30;99.90
4201;DHT22;2114;50.398;8.814;2023-04-24T14:13:31;19.00;99.90
4201;DHT22;2114;50.398;8.814;2023-04-24T14:18:31;18.80;99.90
4201;DHT22;2114;50.398;8.814;2023-04-24T14:23:32;19.10;99.90
4201;DHT22;2114;50.398;8.814;2023-04-24T14:28:32;19.50;99.90
4201;DHT22;2114;50.398;8.814;2023-04-24T14:33:33;19.50;99.90
4201;DHT22;2114;50.398;8.814;2023-04-24T14:38:34;19.70;99.90
4201;DHT22;2114;50.398;8.814;2023-04-24T14:43:35;20.00;99.90
4201;DHT22;2114;50.398;8.814;2023-04-24T14:48:36;20.30;99.90
4201;DHT22;2114;50.398;8.814;2023-04-24T14:53:37;20.60;99.90
4201;DHT22;2114;50.398;8.814;2023-04-24T14:58:37;20.70;99.90
4201;DHT22;2114;50.398;8.814;2023-04-24T15:03:38;19.80;99.90
4201;DHT22;2114;50.398;8.814;2023-04-24T15:08:39;19.80;99.90
4201;DHT22;2114;50.398;8.814;2023-04-24T15:13:39;19.10;99.90
4201;DHT22;2114;50.398;8.814;2023-04-24T15:18:40;18.60;99.90
4201;DHT22;2114;50.398;8.814;2023-04-24T15:23:41;18.40;99.90
4201;DHT22;2114;50.398;8.814;2023-04-24T15:28:41;18.70;99.90
4201;DHT22;2114;50.398;8.814;2023-04-24T15:33:42;18.90;99.90
4201;DHT22;2114;50.398;8.814;2023-04-24T15:38:43;18.80;99.90
4201;DHT22;2114;50.398;8.814;2023-04-24T15:43:44;18.60;99.90
4201;DHT22;2114;50.398;8.814;2023-04-24T15:48:44;18.40;99.90
4201;DHT22;2114;50.398;8.814;2023-04-24T15:53:45;18.40;99.90
4201;DHT22;2114;50.398;8.814;2023-04-24T15:58:46;18.40;99.90
4201;DHT22;2114;50.398;8.814;2023-04-24T16:03:47;18.30;99.90
4201;DHT22;2114;50.398;8.814;2023-04-24T16:08:48;18.20;99.90
4201;DHT22;2114;50.398;8.814;2023-04-24T16:13:48;18.10;99.90
4201;DHT22;2114;50.398;8.814;2023-04-24T16:18:49;17.80;99.90
4201;DHT22;2114;50.398;8.814;2023-04-24T16:23:53;17.50;99.90
4201;DHT22;2114;50.398;8.814;2023-04-24T16:28:53;17.40;99.90
4201;DHT22;2114;50.398;8.814;2023-04-24T16:33:55;17.20;99.90
4201;DHT22;2114;50.398;8.814;2023-04-24T16:38:55;17.10;99.90
4201;DHT22;2114;50.398;8.814;2023-04-24T16:43:56;17.00;99.90
4201;DHT22;2114;50.398;8.814;2023-04-24T16:48:57;16.80;99.90
4201;DHT22;2114;50.398;8.814;2023-04-24T16:53:58;16.70;99.90
4201;DHT22;2114;50.398;8.814;2023-04-24T16:58:58;16.40;99.90
4201;DHT22;2114;50.398;8.814;2023-04-24T17:03:59;16.20;99.90
4201;DHT22;2114;50.398;8.814;2023-04-24T17:09:00;16.00;99.90
4201;DHT22;2114;50.398;8.814;2023-04-24T17:14:00;15.70;99.90
4201;DHT22;2114;50.398;8.814;2023-04-24T17:19:01;15.60;99.90
4201;DHT22;2114;50.398;8.814;2023-04-24T17:24:03;15.60;99.90
4201;DHT22;2114;50.398;8.814;2023-04-24T17:29:04;15.70;99.90
4201;DHT22;2114;50.398;8.814;2023-04-24T17:34:04;15.70;99.90
4201;DHT22;2114;50.398;8.814;2023-04-24T17:39:06;15.50;99.90
4201;DHT22;2114;50.398;8.814;2023-04-24T17:44:09;15.30;99.90
4201;DHT22;2114;50.398;8.814;2023-04-24T17:49:09;15.10;99.90
4201;DHT22;2114;50.398;8.814;2023-04-24T17:54:10;15.00;99.90
4201;DHT22;2114;50.398;8.814;2023-04-24T17:59:11;14.80;99.90
4201;DHT22;2114;50.398;8.814;2023-04-24T18:04:11;14.70;99.90
4201;DHT22;2114;50.398;8.814;2023-04-24T18:09:12;14.50;99.90
4201;DHT22;2114;50.398;8.814;2023-04-24T18:14:15;14.40;99.90
4201;DHT22;2114;50.398;8.814;2023-04-24T18:19:15;14.20;99.90
4201;DHT22;2114;50.398;8.814;2023-04-24T18:24:16;14.10;99.90
4201;DHT22;2114;50.398;8.814;2023-04-24T18:29:16;14.00;99.90
4201;DHT22;2114;50.398;8.814;2023-04-24T18:34:18;13.80;99.90
4201;DHT22;2114;50.398;8.814;2023-04-24T18:39:19;13.70;99.90
4201;DHT22;2114;50.398;8.814;2023-04-24T18:44:20;13.60;99.90
4201;DHT22;2114;50.398;8.814;2023-04-24T18:49:20;13.50;99.90
4201;DHT22;2114;50.398;8.814;2023-04-24T18:54:21;13.60;99.90
4201;DHT22;2114;50.398;8.814;2023-04-24T18:59:21;13.50;99.90
4201;DHT22;2114;50.398;8.814;2023-04-24T19:04:22;13.50;99.90
4201;DHT22;2114;50.398;8.814;2023-04-24T19:09:22;13.50;99.90
4201;DHT22;2114;50.398;8.814;2023-04-24T19:14:23;13.40;99.90
4201;DHT22;2114;50.398;8.814;2023-04-24T19:19:24;13.30;99.90
4201;DHT22;2114;50.398;8.814;2023-04-24T19:24:25;13.20;99.90
4201;DHT22;2114;50.398;8.814;2023-04-24T19:29:28;13.10;99.90
4201;DHT22;2114;50.398;8.814;2023-04-24T19:34:29;13.00;99.90
4201;DHT22;2114;50.398;8.814;2023-04-24T19:39:31;13.00;99.90
4201;DHT22;2114;50.398;8.814;2023-04-24T19:44:32;12.80;99.90
4201;DHT22;2114;50.398;8.814;2023-04-24T19:49:32;12.70;99.90
4201;DHT22;2114;50.398;8.814;2023-04-24T19:54:33;12.60;99.90
4201;DHT22;2114;50.398;8.814;2023-04-24T19:59:33;12.60;99.90
4201;DHT22;2114;50.398;8.814;2023-04-24T20:04:34;12.50;99.90
4201;DHT22;2114;50.398;8.814;2023-04-24T20:09:34;12.50;99.90
4201;DHT22;2114;50.398;8.814;2023-04-24T20:14:35;12.50;99.90
4201;DHT22;2114;50.398;8.814;2023-04-24T20:19:36;12.40;99.90
4201;DHT22;2114;50.398;8.814;2023-04-24T20:24:37;12.40;99.90
4201;DHT22;2114;50.398;8.814;2023-04-24T20:29:37;12.40;99.90
4201;DHT22;2114;50.398;8.814;2023-04-24T20:34:38;12.30;99.90
4201;DHT22;2114;50.398;8.814;2023-04-24T20:39:39;12.30;99.90
4201;DHT22;2114;50.398;8.814;2023-04-24T20:44:40;12.20;99.90
4201;DHT22;2114;50.398;8.814;2023-04-24T20:49:40;12.20;99.90
4201;DHT22;2114;50.398;8.814;2023-04-24T20:54:41;12.10;99.90
4201;DHT22;2114;50.398;8.814;2023-04-24T20:59:41;12.10;99.90
4201;DHT22;2114;50.398;8.814;2023-04-24T21:04:42;12.00;99.90
4201;DHT22;2114;50.398;8.814;2023-04-24T21:09:43;12.00;99.90
4201;DHT22;2114;50.398;8.814;2023-04-24T21:14:43;11.90;99.90
4201;DHT22;2114;50.398;8.814;2023-04-24T21:19:44;11.80;99.90
4201;DHT22;2114;50.398;8.814;2023-04-24T21:24:44;11.80;99.90
4201;DHT22;2114;50.398;8.814;2023-04-24T21:29:45;11.80;99.90
4201;DHT22;2114;50.398;8.814;2023-04-24T21:34:46;11.70;99.90
4201;DHT22;2114;50.398;8.814;2023-04-24T21:39:47;11.70;99.90
4201;DHT22;2114;50.398;8.814;2023-04-24T21:44:47;11.60;99.90
4201;DHT22;2114;50.398;8.814;2023-04-24T21:49:48;11.60;99.90
4201;DHT22;2114;50.398;8.814;2023-04-24T21:54:49;11.60;99.90
4201;DHT22;2114;50.398;8.814;2023-04-24T21:59:50;11.50;99.90
4201;DHT22;2114;50.398;8.814;2023-04-24T22:04:52;11.50;99.90
4201;DHT22;2114;50.398;8.814;2023-04-24T22:09:55;11.40;99.90
4201;DHT22;2114;50.398;8.814;2023-04-24T22:14:55;11.40;99.90
4201;DHT22;2114;50.398;8.814;2023-04-24T22:19:56;11.40;99.90
4201;DHT22;2114;50.398;8.814;2023-04-24T22:24:58;11.30;99.90
4201;DHT22;2114;50.398;8.814;2023-04-24T22:29:58;11.30;99.90
4201;DHT22;2114;50.398;8.814;2023-04-24T22:34:59;11.30;99.90
4201;DHT22;2114;50.398;8.814;2023-04-24T22:40:00;11.30;99.90
4201;DHT22;2114;50.398;8.814;2023-04-24T22:45:01;11.30;99.90
4201;DHT22;2114;50.398;8.814;2023-04-24T22:50:01;11.30;99.90
4201;DHT22;2114;50.398;8.814;2023-04-24T22:55:03;11.30;99.90
4201;DHT22;2114;50.398;8.814;2023-04-24T23:00:05;11.30;99.90
4201;DHT22;2114;50.398;8.814;2023-04-24T23:05:10;11.30;99.90
4201;DHT22;2114;50.398;8.814;2023-04-24T23:10:11;11.30;99.90
4201;DHT22;2114;50.398;8.814;2023-04-24T23:15:11;11.30;99.90
4201;DHT22;2114;50.398;8.814;2023-04-24T23:20:12;11.30;99.90
4201;DHT22;2114;50.398;8.814;2023-04-24T23:25:13;11.20;99.90
4201;DHT22;2114;50.398;8.814;2023-04-24T23:30:14;11.20;99.90
4201;DHT22;2114;50.398;8.814;2023-04-24T23:59:02;11.10;99.90
